Latest Weather Observations for Roebourne Airport

IDW60801

Issued at 8:04 am WST Sunday 25 September 2016 (issued every 30 minutes, with the page automatically refreshed every 10 minutes)

About weather observations | Map of weather stations | Latest weather observations for WA | Other Formats
Station Details ID: 004090 Name: ROEBOURNE AERO Lat: -20.76 Lon: 117.16 Height: 10.7 m
Data from the previous 72 hours. | See also: Recent months at Roebourne Airport
Date/Time
WST
Temp
°C
App
Temp
°C
Dew
Point
°C
Rel
Hum
%
Delta-T
°C
Wind Press
QNH
hPa
Press
MSL
hPa
Rain since
9am
mm
Dir  Spd
km/h
Gust
km/h
Spd
kts
Gust
kts
25/08:00am 22.4 20.2 7.8 39 7.6 WSW 9 11 5 6 1011.3 1011.3 0.0
25/07:30am 20.9 19.4 10.4 51 5.7 W 9 13 5 7 1010.9 1010.9 0.0
25/07:00am 17.8 17.6 13.1 74 2.6 NW 6 7 3 4 1010.6 1010.6 0.0
25/06:30am 15.2 14.2 12.2 82 1.6 NNW 9 11 5 6 1010.3 1010.3 0.0
25/06:00am 15.8 14.2 11.6 76 2.3 W 11 13 6 7 1010.1 1010.1 0.0
25/05:30am 16.5 14.8 12.5 77 2.2 WSW 13 15 7 8 1009.8 1009.8 0.0
25/05:00am 16.8 15.3 13.1 79 2.1 WSW 13 19 7 10 1009.6 1009.6 0.0
25/04:30am 17.1 15.6 13.2 78 2.2 WSW 13 15 7 8 1009.8 1009.8 0.0
25/04:00am 16.8 16.4 13.1 79 2.1 WSW 7 9 4 5 1009.7 1009.7 0.0
25/03:30am 17.2 15.5 12.3 73 2.7 SW 13 17 7 9 1009.8 1009.8 0.0
25/03:00am 18.1 17.0 13.2 73 2.8 SW 11 17 6 9 1009.9 1009.9 0.0
25/02:30am 18.1 16.3 12.1 68 3.3 WSW 13 15 7 8 1010.1 1010.1 0.0
25/02:00am 18.5 17.2 11.3 63 3.9 WSW 9 13 5 7 1010.4 1010.4 0.0
25/01:30am 19.2 16.1 10.2 56 4.8 WSW 17 22 9 12 1010.4 1010.4 0.0
25/01:00am 19.8 16.5 9.7 52 5.4 W 17 24 9 13 1010.8 1010.8 0.0
25/12:30am 19.6 16.4 9.8 53 5.2 WSW 17 20 9 11 1010.8 1010.8 0.0
25/12:00am 20.0 16.8 9.9 52 5.4 WSW 17 22 9 12 1011.1 1011.1 0.0
 
Date/Time
WST
Temp
°C
App
Temp
°C
Dew
Point
°C
Rel
Hum
%
Delta-T
°C
Wind Press
QNH
hPa
Press
MSL
hPa
Rain since
9am
mm
Dir  Spd
km/h
Gust
km/h
Spd
kts
Gust
kts
24/11:30pm 19.9 16.6 9.5 51 5.5 WSW 17 22 9 12 1011.3 1011.3 0.0
24/11:00pm 20.5 17.2 9.4 49 5.9 SW 17 24 9 13 1011.6 1011.6 0.0
24/10:30pm 21.0 17.1 9.3 47 6.2 WSW 20 26 11 14 1011.7 1011.7 0.0
24/10:00pm 21.4 17.1 8.0 42 7.0 WSW 20 26 11 14 1011.9 1011.9 0.0
24/09:30pm 21.7 17.1 6.4 37 7.8 WSW 20 26 11 14 1011.9 1011.9 0.0
24/09:00pm 21.9 16.9 4.5 32 8.5 WSW 20 26 11 14 1011.7 1011.7 0.0
24/08:30pm 22.8 17.7 3.9 29 9.2 WSW 20 28 11 15 1011.6 1011.6 0.0
24/08:00pm 23.5 18.0 4.0 28 9.6 WSW 22 30 12 16 1011.4 1011.4 0.0
24/07:30pm 23.9 19.1 4.8 29 9.5 W 19 22 10 12 1011.1 1011.1 0.0
24/07:00pm 24.6 19.5 3.3 25 10.4 W 19 22 10 12 1010.7 1010.7 0.0
24/06:30pm 25.1 20.2 4.3 26 10.4 W 19 24 10 13 1010.4 1010.4 0.0
24/06:00pm 26.4 20.2 4.2 24 11.2 WNW 26 32 14 17 1010.2 1010.2 0.0
24/05:30pm 27.5 21.2 3.9 22 11.9 WNW 26 35 14 19 1010.1 1010.1 0.0
24/05:00pm 28.8 22.3 2.9 19 12.9 WNW 26 32 14 17 1009.9 1009.9 0.0
24/04:30pm 29.7 23.3 1.2 16 13.9 WNW 24 32 13 17 1009.8 1009.8 0.0
24/04:00pm 30.3 24.3 3.4 18 13.7 WNW 24 32 13 17 1009.7 1009.7 0.0
24/03:30pm 30.9 25.0 -0.7 13 15.0 NW 20 32 11 17 1009.7 1009.7 0.0
24/03:00pm 30.6 24.7 -0.9 13 14.9 NW 20 28 11 15 1009.8 1009.8 0.0
24/02:30pm 32.0 26.0 1.2 14 15.2 NNW 22 33 12 18 1009.8 1009.8 0.0
24/02:00pm 30.7 25.9 0.2 14 14.7 NW 15 24 8 13 1010.0 1010.0 0.0
24/01:30pm 31.4 26.1 -0.3 13 15.2 NNE 17 28 9 15 1010.3 1010.3 0.0
24/01:00pm 31.4 27.1 0.7 14 15.0 NE 13 20 7 11 1010.7 1010.7 0.0
24/12:30pm 30.3 26.3 0.8 15 14.3 ENE 11 19 6 10 1011.0 1011.0 0.0
24/12:00pm 29.9 24.9 1.4 16 13.9 ENE 17 24 9 13 1011.5 1011.5 0.0
24/11:30am 30.1 24.6 0.6 15 14.2 NNE 19 28 10 15 1011.9 1011.9 0.0
24/11:00am 29.7 24.3 -1.6 13 14.5 E 17 24 9 13 1012.7 1012.7 0.0
24/10:30am 28.9 23.8 -2.3 13 14.2 E 15 24 8 13 1013.1 1013.1 0.0
24/10:00am 28.6 23.9 -1.5 14 13.9 ESE 13 24 7 13 1013.4 1013.4 0.0
24/09:30am 27.6 22.6 -1.3 15 13.2 ESE 15 20 8 11 1013.8 1013.7 0.0
24/09:00am 26.4 21.4 -1.4 16 12.6 ESE 15 26 8 14 1013.9 1013.8 0.0
24/08:30am 25.5 20.2 -0.5 18 11.9 ESE 17 22 9 12 1013.8 1013.7 0.0
24/08:00am 24.7 20.2 -0.4 19 11.4 ESE 13 20 7 11 1013.6 1013.5 0.0
24/07:30am 21.7 18.5 0.8 25 9.5 S 7 9 4 5 1013.1 1013.1 0.0
24/07:00am 18.2 16.2 2.1 34 7.3 S 2 6 1 3 1012.6 1012.6 0.0
24/06:30am 14.5 11.4 1.4 41 5.7 S 7 9 4 5 1012.3 1012.3 0.0
24/06:00am 12.7 10.0 2.6 50 4.4 S 6 7 3 4 1011.9 1011.9 0.0
24/05:30am 14.2 12.9 3.9 50 4.7 CALM 0 0 0 0 1011.5 1011.5 0.0
24/05:00am 13.1 11.4 1.8 46 4.9 CALM 0 2 0 1 1011.2 1011.2 0.0
24/04:30am 13.2 11.3 2.7 49 4.6 SW 2 6 1 3 1010.9 1010.9 0.0
24/04:00am 14.1 11.2 2.7 46 5.1 SW 7 9 4 5 1010.6 1010.6 0.0
24/03:30am 14.1 12.0 2.0 44 5.3 WSW 2 6 1 3 1010.5 1010.5 0.0
24/03:00am 16.4 12.5 1.3 36 6.6 SW 11 13 6 7 1010.4 1010.4 0.0
24/02:30am 17.8 14.5 2.5 36 7.0 SW 9 15 5 8 1010.5 1010.5 0.0
24/02:00am 17.6 14.3 2.4 36 6.9 SW 9 13 5 7 1010.5 1010.5 0.0
24/01:30am 17.6 14.6 2.0 35 7.0 SW 7 11 4 6 1010.5 1010.5 0.0
24/01:00am 20.1 15.7 2.9 32 8.1 SW 15 17 8 9 1010.5 1010.5 0.0
24/12:30am 16.9 13.8 3.6 41 6.2 SW 9 13 5 7 1010.7 1010.7 0.0
24/12:00am 18.5 16.7 3.2 36 7.1 SW 2 6 1 3 1010.9 1010.9 0.0
 
Date/Time
WST
Temp
°C
App
Temp
°C
Dew
Point
°C
Rel
Hum
%
Delta-T
°C
Wind Press
QNH
hPa
Press
MSL
hPa
Rain since
9am
mm
Dir  Spd
km/h
Gust
km/h
Spd
kts
Gust
kts
23/11:30pm 19.4 15.5 3.2 34 7.6 SW 13 15 7 8 1010.7 1010.7 0.0
23/11:00pm 18.9 15.0 3.5 36 7.2 SW 13 15 7 8 1010.8 1010.8 0.0
23/10:30pm 22.8 18.7 4.3 30 9.1 WSW 15 20 8 11 1010.8 1010.8 0.0
23/10:00pm 23.3 19.7 5.2 31 9.1 WSW 13 15 7 8 1010.9 1010.9 0.0
23/09:30pm 22.5 19.2 9.6 44 7.0 W 17 19 9 10 1010.8 1010.8 0.0
23/09:00pm 23.3 20.3 10.7 45 7.0 W 17 20 9 11 1010.6 1010.6 0.0
23/08:30pm 24.0 20.7 11.0 44 7.3 W 19 24 10 13 1010.2 1010.2 0.0
23/08:00pm 25.0 21.0 8.9 36 8.7 W 20 26 11 14 1009.8 1009.8 0.0
23/07:30pm 27.8 21.7 0.5 17 12.9 W 22 28 12 15 1009.4 1009.4 0.0
23/07:00pm 28.0 22.5 0.7 17 13.0 WSW 19 24 10 13 1009.1 1009.1 0.0
23/06:30pm 28.8 23.2 1.3 17 13.3 WSW 20 28 11 15 1008.6 1008.6 0.0
23/06:00pm 30.0 24.1 1.5 16 14.0 WSW 22 30 12 16 1008.3 1008.3 0.0
23/05:30pm 31.1 26.2 2.3 16 14.4 WSW 17 28 9 15 1008.0 1008.0 0.0
23/05:00pm 32.0 26.2 2.1 15 15.0 WSW 22 37 12 20 1007.8 1007.8 0.0
23/04:30pm 32.6 26.1 0.6 13 15.7 WSW 24 33 13 18 1007.8 1007.8 0.0
23/04:00pm 33.1 27.6 2.1 14 15.7 WSW 20 32 11 17 1007.8 1007.8 0.0
23/03:30pm 33.5 27.7 2.4 14 15.8 WSW 22 35 12 19 1008.0 1008.0 0.0
23/03:00pm 33.1 26.5 2.1 14 15.7 WSW 26 41 14 22 1008.1 1008.1 0.0
23/02:30pm 32.4 27.2 3.4 16 14.9 SW 20 32 11 17 1008.3 1008.3 0.0
23/02:00pm 31.6 26.0 3.6 17 14.4 WSW 22 37 12 20 1008.6 1008.6 0.0
23/01:30pm 31.9 26.5 4.6 18 14.3 SSW 22 35 12 19 1008.8 1008.8 0.0
23/01:00pm 32.3 26.6 5.0 18 14.4 SW 24 32 13 17 1009.4 1009.4 0.0
23/12:30pm 30.6 25.1 5.8 21 13.1 SW 24 43 13 23 1009.8 1009.8 0.0
23/12:00pm 30.2 24.9 6.8 23 12.6 SSW 24 35 13 19 1010.3 1010.3 0.0
23/11:30am 29.4 23.7 6.7 24 12.1 SW 26 43 14 23 1010.9 1010.9 0.0
23/11:00am 29.0 25.1 8.7 28 11.2 SSW 19 30 10 16 1011.3 1011.3 0.0
23/10:30am 27.8 22.4 8.1 29 10.7 SSW 26 41 14 22 1011.9 1011.9 0.0
23/10:00am 26.6 21.7 8.6 32 9.8 SSW 24 35 13 19 1012.4 1012.4 0.0
23/09:30am 26.4 22.2 9.7 35 9.2 SSW 22 32 12 17 1012.6 1012.6 0.0
23/09:00am 25.5 20.9 9.7 37 8.7 SSW 24 33 13 18 1012.8 1012.8 0.0
23/08:30am 24.2 20.5 10.1 41 7.8 SSW 20 28 11 15 1013.0 1013.0 0.0
23/08:00am 22.8 18.8 10.3 45 6.8 SW 22 30 12 16 1013.2 1013.2 0.0
23/07:30am 21.5 17.1 10.3 49 6.1 SW 24 33 13 18 1012.9 1012.9 0.0
23/07:00am 20.9 17.3 10.7 52 5.6 SW 20 26 11 14 1012.6 1012.6 0.0
23/06:30am 20.1 16.8 10.8 55 5.1 SW 19 26 10 14 1012.4 1012.4 0.0
23/06:00am 20.0 17.1 11.0 56 4.9 WSW 17 20 9 11 1012.2 1012.2 0.0
23/05:30am 20.5 17.1 11.2 55 5.1 SW 20 26 11 14 1011.8 1011.8 0.0
23/05:00am 21.3 19.4 13.0 59 4.7 W 15 20 8 11 1011.7 1011.7 0.0
23/04:30am 20.8 19.1 13.5 63 4.2 W 15 20 8 11 1011.5 1011.5 0.0
23/04:00am 20.0 18.3 13.7 67 3.6 W 15 19 8 10 1011.2 1011.2 0.0
23/03:30am 20.5 19.1 13.5 64 4.0 W 13 17 7 9 1011.1 1011.1 0.0
23/03:00am 21.5 19.1 13.9 62 4.4 WSW 19 26 10 14 1010.9 1010.9 0.0
23/02:30am 21.7 19.9 14.4 63 4.3 W 17 20 9 11 1011.3 1011.3 0.0
23/02:00am 21.9 20.1 14.5 63 4.3 WSW 17 24 9 13 1011.2 1011.2 0.0
23/01:30am 22.0 20.4 14.9 64 4.2 W 17 20 9 11 1011.3 1011.3 0.0
23/01:00am 22.7 20.3 15.3 63 4.4 WSW 22 28 12 15 1011.5 1011.5 0.0
23/12:30am 22.8 21.4 15.6 64 4.3 WSW 17 22 9 12 1011.6 1011.6 0.0
23/12:00am 23.2 19.8 15.8 63 4.5 WSW 28 35 15 19 1011.8 1011.8 0.0
 
Date/Time
WST
Temp
°C
App
Temp
°C
Dew
Point
°C
Rel
Hum
%
Delta-T
°C
Wind Press
QNH
hPa
Press
MSL
hPa
Rain since
9am
mm
Dir  Spd
km/h
Gust
km/h
Spd
kts
Gust
kts
22/11:30pm 23.4 21.4 15.5 61 4.7 W 20 30 11 16 1012.2 1012.2 0.0
22/11:00pm 23.7 22.3 15.5 60 4.9 WSW 17 20 9 11 1012.1 1012.1 0.0
22/10:30pm 23.8 21.5 15.8 61 4.8 W 22 30 12 16 1012.1 1012.1 0.0
22/10:00pm 23.9 21.8 16.2 62 4.7 W 22 30 12 16 1012.3 1012.3 0.0
22/09:30pm 23.8 21.2 16.8 65 4.3 W 26 35 14 19 1012.4 1012.4 0.0
22/09:00pm 24.4 22.5 17.6 66 4.2 W 24 35 13 19 1012.3 1012.3 0.0
22/08:30pm 24.7 23.0 18.2 67 4.1 W 24 32 13 17 1012.2 1012.2 0.0
22/08:00pm 25.6 23.8 17.8 62 4.9 W 24 30 13 16 1012.1 1012.1 0.0
22/07:30pm 26.5 25.0 17.6 58 5.6 W 22 28 12 15 1011.8 1011.8 0.0
22/07:00pm 26.7 25.8 18.3 60 5.3 WNW 20 24 11 13 1011.5 1011.5 0.0
22/06:30pm 26.9 25.6 18.2 59 5.5 WNW 22 30 12 16 1011.1 1011.1 0.0
22/06:00pm 27.1 24.8 18.4 59 5.5 WNW 28 33 15 18 1010.9 1010.9 0.0
22/05:30pm 27.8 25.2 17.9 54 6.3 WNW 28 33 15 18 1010.9 1010.9 0.0
22/05:00pm 28.8 25.5 17.0 49 7.4 WNW 30 37 16 20 1010.8 1010.8 0.0
22/04:30pm 30.1 26.1 14.2 38 9.6 WNW 28 33 15 18 1010.7 1010.7 0.0
22/04:00pm 30.7 26.6 14.8 38 9.7 WNW 30 37 16 20 1010.7 1010.7 0.0
22/03:30pm 30.7 26.9 13.5 35 10.3 WNW 26 35 14 19 1010.7 1010.7 0.0
22/03:00pm 31.2 27.2 13.0 33 10.9 WNW 26 35 14 19 1010.7 1010.7 0.0
22/02:30pm 32.5 28.8 12.7 30 11.8 WNW 24 33 13 18 1010.7 1010.7 0.0
22/02:00pm 33.2 28.6 11.1 26 12.9 NW 26 39 14 21 1011.0 1011.0 0.0
22/01:30pm 32.9 29.4 10.9 26 12.8 WNW 20 32 11 17 1011.0 1011.0 0.0
22/01:00pm 32.8 30.2 11.9 28 12.3 NW 17 32 9 17 1011.3 1011.3 0.0
22/12:30pm 32.4 30.6 12.1 29 12.0 WNW 13 24 7 13 1011.7 1011.7 0.0
22/12:00pm 32.1 30.4 11.3 28 12.1 NW 11 20 6 11 1012.2 1012.2 0.0
22/11:30am 31.1 28.9 12.0 31 11.2 W 15 26 8 14 1012.7 1012.7 0.0
22/11:00am 30.1 28.2 13.0 35 10.1 SW 15 24 8 13 1013.3 1013.3 0.0
22/10:30am 29.2 28.3 13.8 39 9.2 W 11 17 6 9 1013.8 1013.7 0.0
22/10:00am 28.0 26.4 15.0 45 7.9 WSW 17 26 9 14 1014.2 1014.1 0.0
22/09:30am 26.7 25.6 15.4 50 6.9 WSW 15 20 8 11 1014.3 1014.2 0.0
22/09:00am 26.4 25.9 15.8 52 6.5 SW 13 20 7 11 1014.5 1014.4 0.0
22/08:30am 24.5 24.6 15.4 57 5.5 S 9 15 5 8 1014.5 1014.4 0.0

Other Formats:

Comma delimited format used in spreadsheet applications
http://www.bom.gov.au/fwo/IDW60801/IDW60801.94308.axf

JavaScript Object Notation format (JSON) in row-major order
http://www.bom.gov.au/fwo/IDW60801/IDW60801.94308.json